sensor_id;sensor_type;location;lat;lon;timestamp;P1;durP1;ratioP1;P2;durP2;ratioP2
81960;SDS011;71462;50.650;6.888;2024-03-22T00:01:00;14.15;;;6.15;;
81960;SDS011;71462;50.650;6.888;2024-03-22T00:03:26;14.38;;;6.15;;
81960;SDS011;71462;50.650;6.888;2024-03-22T00:05:53;11.02;;;5.28;;
81960;SDS011;71462;50.650;6.888;2024-03-22T00:08:18;12.10;;;5.82;;
81960;SDS011;71462;50.650;6.888;2024-03-22T00:10:45;12.82;;;6.05;;
81960;SDS011;71462;50.650;6.888;2024-03-22T00:13:11;58.75;;;25.88;;
81960;SDS011;71462;50.650;6.888;2024-03-22T00:15:38;106.70;;;52.25;;
81960;SDS011;71462;50.650;6.888;2024-03-22T00:18:05;15.82;;;7.85;;
81960;SDS011;71462;50.650;6.888;2024-03-22T00:20:32;20.83;;;10.52;;
81960;SDS011;71462;50.650;6.888;2024-03-22T00:22:58;15.30;;;8.85;;
81960;SDS011;71462;50.650;6.888;2024-03-22T00:25:24;16.95;;;8.75;;
81960;SDS011;71462;50.650;6.888;2024-03-22T00:27:50;11.45;;;6.22;;
81960;SDS011;71462;50.650;6.888;2024-03-22T00:30:17;15.30;;;6.63;;
81960;SDS011;71462;50.650;6.888;2024-03-22T00:32:43;14.27;;;7.82;;
81960;SDS011;71462;50.650;6.888;2024-03-22T00:35:11;28.27;;;16.00;;
81960;SDS011;71462;50.650;6.888;2024-03-22T00:37:37;16.10;;;7.95;;
81960;SDS011;71462;50.650;6.888;2024-03-22T00:40:04;18.55;;;10.25;;
81960;SDS011;71462;50.650;6.888;2024-03-22T00:42:31;16.02;;;6.28;;
81960;SDS011;71462;50.650;6.888;2024-03-22T00:44:58;13.10;;;6.07;;
81960;SDS011;71462;50.650;6.888;2024-03-22T00:47:23;13.65;;;8.32;;
81960;SDS011;71462;50.650;6.888;2024-03-22T00:49:50;16.42;;;8.80;;
81960;SDS011;71462;50.650;6.888;2024-03-22T00:52:17;12.10;;;7.30;;
81960;SDS011;71462;50.650;6.888;2024-03-22T00:54:44;13.13;;;7.93;;
81960;SDS011;71462;50.650;6.888;2024-03-22T00:57:10;14.40;;;6.90;;
81960;SDS011;71462;50.650;6.888;2024-03-22T00:59:37;13.10;;;6.47;;
81960;SDS011;71462;50.650;6.888;2024-03-22T01:02:03;12.90;;;6.03;;
81960;SDS011;71462;50.650;6.888;2024-03-22T01:04:30;10.57;;;5.55;;
81960;SDS011;71462;50.650;6.888;2024-03-22T01:06:55;11.63;;;5.68;;
81960;SDS011;71462;50.650;6.888;2024-03-22T01:09:24;11.07;;;6.00;;
81960;SDS011;71462;50.650;6.888;2024-03-22T01:11:50;14.00;;;6.43;;
81960;SDS011;71462;50.650;6.888;2024-03-22T01:14:16;14.68;;;6.60;;
81960;SDS011;71462;50.650;6.888;2024-03-22T01:16:42;13.70;;;6.72;;
81960;SDS011;71462;50.650;6.888;2024-03-22T01:19:09;11.70;;;5.72;;
81960;SDS011;71462;50.650;6.888;2024-03-22T01:21:35;11.75;;;5.65;;
81960;SDS011;71462;50.650;6.888;2024-03-22T01:24:02;14.52;;;8.00;;
81960;SDS011;71462;50.650;6.888;2024-03-22T01:26:29;11.48;;;6.72;;
81960;SDS011;71462;50.650;6.888;2024-03-22T01:28:56;12.38;;;5.82;;
81960;SDS011;71462;50.650;6.888;2024-03-22T01:31:22;10.38;;;5.97;;
81960;SDS011;71462;50.650;6.888;2024-03-22T01:33:49;14.93;;;5.82;;
81960;SDS011;71462;50.650;6.888;2024-03-22T01:36:14;10.40;;;5.40;;
81960;SDS011;71462;50.650;6.888;2024-03-22T01:38:41;11.95;;;5.45;;
81960;SDS011;71462;50.650;6.888;2024-03-22T01:41:07;10.95;;;5.63;;
81960;SDS011;71462;50.650;6.888;2024-03-22T01:43:35;10.80;;;5.13;;
81960;SDS011;71462;50.650;6.888;2024-03-22T01:46:02;10.43;;;5.28;;
81960;SDS011;71462;50.650;6.888;2024-03-22T01:48:29;12.20;;;5.85;;
81960;SDS011;71462;50.650;6.888;2024-03-22T01:50:56;10.55;;;5.40;;
81960;SDS011;71462;50.650;6.888;2024-03-22T01:53:22;10.57;;;5.00;;
81960;SDS011;71462;50.650;6.888;2024-03-22T01:55:49;10.02;;;5.32;;
81960;SDS011;71462;50.650;6.888;2024-03-22T01:58:15;10.48;;;5.43;;
81960;SDS011;71462;50.650;6.888;2024-03-22T02:00:44;13.50;;;5.97;;
81960;SDS011;71462;50.650;6.888;2024-03-22T02:03:10;10.70;;;4.85;;
81960;SDS011;71462;50.650;6.888;2024-03-22T02:05:37;9.88;;;4.78;;
81960;SDS011;71462;50.650;6.888;2024-03-22T02:08:03;8.48;;;5.25;;
81960;SDS011;71462;50.650;6.888;2024-03-22T02:10:30;9.07;;;5.07;;
81960;SDS011;71462;50.650;6.888;2024-03-22T02:12:56;10.40;;;4.97;;
81960;SDS011;71462;50.650;6.888;2024-03-22T02:15:24;10.32;;;4.88;;
81960;SDS011;71462;50.650;6.888;2024-03-22T02:17:51;11.23;;;4.75;;
81960;SDS011;71462;50.650;6.888;2024-03-22T02:20:18;7.82;;;4.40;;
81960;SDS011;71462;50.650;6.888;2024-03-22T02:22:44;12.07;;;5.07;;
81960;SDS011;71462;50.650;6.888;2024-03-22T02:25:12;12.65;;;6.18;;
81960;SDS011;71462;50.650;6.888;2024-03-22T02:27:38;13.10;;;5.95;;
81960;SDS011;71462;50.650;6.888;2024-03-22T02:30:08;10.68;;;6.05;;
81960;SDS011;71462;50.650;6.888;2024-03-22T02:32:34;11.38;;;6.10;;
81960;SDS011;71462;50.650;6.888;2024-03-22T02:35:02;13.55;;;6.20;;
81960;SDS011;71462;50.650;6.888;2024-03-22T02:37:28;10.35;;;6.35;;
81960;SDS011;71462;50.650;6.888;2024-03-22T02:39:55;13.98;;;6.72;;
81960;SDS011;71462;50.650;6.888;2024-03-22T02:42:22;10.35;;;6.00;;
81960;SDS011;71462;50.650;6.888;2024-03-22T02:44:49;13.57;;;6.70;;
81960;SDS011;71462;50.650;6.888;2024-03-22T02:47:15;14.02;;;7.32;;
81960;SDS011;71462;50.650;6.888;2024-03-22T02:49:41;12.15;;;6.47;;
81960;SDS011;71462;50.650;6.888;2024-03-22T02:52:07;11.45;;;6.28;;
81960;SDS011;71462;50.650;6.888;2024-03-22T02:54:34;13.48;;;7.20;;
81960;SDS011;71462;50.650;6.888;2024-03-22T02:57:00;14.30;;;7.40;;
81960;SDS011;71462;50.650;6.888;2024-03-22T02:59:28;13.93;;;7.15;;
81960;SDS011;71462;50.650;6.888;2024-03-22T03:01:54;16.02;;;7.70;;
81960;SDS011;71462;50.650;6.888;2024-03-22T03:04:21;11.90;;;6.95;;
81960;SDS011;71462;50.650;6.888;2024-03-22T03:06:47;15.63;;;7.70;;
81960;SDS011;71462;50.650;6.888;2024-03-22T03:09:14;14.82;;;7.75;;
81960;SDS011;71462;50.650;6.888;2024-03-22T03:11:40;13.20;;;8.23;;
81960;SDS011;71462;50.650;6.888;2024-03-22T03:14:07;14.77;;;8.45;;
81960;SDS011;71462;50.650;6.888;2024-03-22T03:16:34;15.30;;;8.73;;
81960;SDS011;71462;50.650;6.888;2024-03-22T03:19:01;17.60;;;8.38;;
81960;SDS011;71462;50.650;6.888;2024-03-22T03:21:27;17.00;;;7.93;;
81960;SDS011;71462;50.650;6.888;2024-03-22T03:23:53;15.00;;;7.80;;
81960;SDS011;71462;50.650;6.888;2024-03-22T03:26:19;15.75;;;8.38;;
81960;SDS011;71462;50.650;6.888;2024-03-22T03:28:46;13.65;;;7.47;;
81960;SDS011;71462;50.650;6.888;2024-03-22T03:31:12;16.65;;;8.15;;
81960;SDS011;71462;50.650;6.888;2024-03-22T03:33:40;15.27;;;8.57;;
81960;SDS011;71462;50.650;6.888;2024-03-22T03:36:06;17.45;;;8.80;;
81960;SDS011;71462;50.650;6.888;2024-03-22T03:38:33;14.80;;;8.13;;
81960;SDS011;71462;50.650;6.888;2024-03-22T03:40:58;14.00;;;7.85;;
81960;SDS011;71462;50.650;6.888;2024-03-22T03:43:25;14.63;;;8.15;;
81960;SDS011;71462;50.650;6.888;2024-03-22T03:45:51;13.55;;;7.32;;
81960;SDS011;71462;50.650;6.888;2024-03-22T03:48:19;18.38;;;8.45;;
81960;SDS011;71462;50.650;6.888;2024-03-22T03:50:52;14.20;;;8.20;;
81960;SDS011;71462;50.650;6.888;2024-03-22T03:53:20;15.25;;;8.40;;
81960;SDS011;71462;50.650;6.888;2024-03-22T03:55:46;17.67;;;8.30;;
81960;SDS011;71462;50.650;6.888;2024-03-22T03:58:12;15.30;;;8.15;;
81960;SDS011;71462;50.650;6.888;2024-03-22T04:00:39;14.43;;;7.72;;
81960;SDS011;71462;50.650;6.888;2024-03-22T04:03:05;15.40;;;8.23;;
81960;SDS011;71462;50.650;6.888;2024-03-22T04:05:32;14.57;;;7.55;;
81960;SDS011;71462;50.650;6.888;2024-03-22T04:07:59;18.65;;;8.55;;
81960;SDS011;71462;50.650;6.888;2024-03-22T04:10:26;13.15;;;7.78;;
81960;SDS011;71462;50.650;6.888;2024-03-22T04:12:52;14.50;;;7.70;;
81960;SDS011;71462;50.650;6.888;2024-03-22T04:15:18;15.95;;;7.80;;
81960;SDS011;71462;50.650;6.888;2024-03-22T04:17:44;18.45;;;8.73;;
81960;SDS011;71462;50.650;6.888;2024-03-22T04:20:11;14.15;;;7.70;;
81960;SDS011;71462;50.650;6.888;2024-03-22T04:22:37;18.42;;;8.80;;
81960;SDS011;71462;50.650;6.888;2024-03-22T04:25:06;16.10;;;8.52;;
81960;SDS011;71462;50.650;6.888;2024-03-22T04:27:35;16.58;;;8.85;;
81960;SDS011;71462;50.650;6.888;2024-03-22T04:30:02;16.75;;;8.95;;
81960;SDS011;71462;50.650;6.888;2024-03-22T04:32:28;17.58;;;8.57;;
81960;SDS011;71462;50.650;6.888;2024-03-22T04:34:55;17.92;;;8.90;;
81960;SDS011;71462;50.650;6.888;2024-03-22T04:37:21;14.93;;;9.18;;
81960;SDS011;71462;50.650;6.888;2024-03-22T04:39:49;16.50;;;9.00;;
81960;SDS011;71462;50.650;6.888;2024-03-22T04:42:17;15.63;;;8.50;;
81960;SDS011;71462;50.650;6.888;2024-03-22T04:44:45;17.10;;;8.40;;
81960;SDS011;71462;50.650;6.888;2024-03-22T04:47:12;15.75;;;8.20;;
81960;SDS011;71462;50.650;6.888;2024-03-22T04:49:38;15.15;;;8.38;;
81960;SDS011;71462;50.650;6.888;2024-03-22T04:52:05;17.65;;;8.15;;
81960;SDS011;71462;50.650;6.888;2024-03-22T04:54:32;15.60;;;7.90;;
81960;SDS011;71462;50.650;6.888;2024-03-22T04:56:58;13.60;;;7.85;;
81960;SDS011;71462;50.650;6.888;2024-03-22T04:59:26;13.73;;;6.82;;
81960;SDS011;71462;50.650;6.888;2024-03-22T05:01:52;15.35;;;7.55;;
81960;SDS011;71462;50.650;6.888;2024-03-22T05:04:19;16.65;;;7.05;;
81960;SDS011;71462;50.650;6.888;2024-03-22T05:06:45;14.20;;;6.95;;
81960;SDS011;71462;50.650;6.888;2024-03-22T05:09:12;18.40;;;8.10;;
81960;SDS011;71462;50.650;6.888;2024-03-22T05:11:38;16.05;;;7.40;;
81960;SDS011;71462;50.650;6.888;2024-03-22T05:14:05;16.25;;;7.18;;
81960;SDS011;71462;50.650;6.888;2024-03-22T05:16:32;15.60;;;7.25;;
81960;SDS011;71462;50.650;6.888;2024-03-22T05:18:59;21.23;;;9.35;;
81960;SDS011;71462;50.650;6.888;2024-03-22T05:21:25;15.05;;;8.05;;
81960;SDS011;71462;50.650;6.888;2024-03-22T05:23:52;18.75;;;8.63;;
81960;SDS011;71462;50.650;6.888;2024-03-22T05:26:18;18.30;;;9.13;;
81960;SDS011;71462;50.650;6.888;2024-03-22T05:28:46;15.30;;;7.65;;
81960;SDS011;71462;50.650;6.888;2024-03-22T05:31:12;17.73;;;7.72;;
81960;SDS011;71462;50.650;6.888;2024-03-22T05:33:40;14.85;;;8.85;;
81960;SDS011;71462;50.650;6.888;2024-03-22T05:36:06;16.75;;;8.90;;
81960;SDS011;71462;50.650;6.888;2024-03-22T05:38:33;16.75;;;9.60;;
81960;SDS011;71462;50.650;6.888;2024-03-22T05:41:03;21.15;;;10.77;;
81960;SDS011;71462;50.650;6.888;2024-03-22T05:43:30;22.25;;;11.15;;
81960;SDS011;71462;50.650;6.888;2024-03-22T05:45:56;19.35;;;10.45;;
81960;SDS011;71462;50.650;6.888;2024-03-22T05:48:23;19.25;;;9.98;;
81960;SDS011;71462;50.650;6.888;2024-03-22T05:50:50;17.48;;;10.13;;
81960;SDS011;71462;50.650;6.888;2024-03-22T05:53:17;23.33;;;11.20;;
81960;SDS011;71462;50.650;6.888;2024-03-22T05:55:43;20.40;;;10.93;;
81960;SDS011;71462;50.650;6.888;2024-03-22T05:58:10;21.67;;;9.80;;
81960;SDS011;71462;50.650;6.888;2024-03-22T06:00:36;18.38;;;9.52;;
81960;SDS011;71462;50.650;6.888;2024-03-22T06:03:03;17.27;;;9.10;;
81960;SDS011;71462;50.650;6.888;2024-03-22T06:05:29;16.75;;;9.38;;
81960;SDS011;71462;50.650;6.888;2024-03-22T06:07:57;19.45;;;9.10;;
81960;SDS011;71462;50.650;6.888;2024-03-22T06:10:23;19.65;;;10.15;;
81960;SDS011;71462;50.650;6.888;2024-03-22T06:12:50;19.65;;;9.38;;
81960;SDS011;71462;50.650;6.888;2024-03-22T06:15:15;16.40;;;9.02;;
81960;SDS011;71462;50.650;6.888;2024-03-22T06:17:42;17.33;;;8.02;;
81960;SDS011;71462;50.650;6.888;2024-03-22T06:20:12;17.27;;;8.88;;
81960;SDS011;71462;50.650;6.888;2024-03-22T06:22:38;17.10;;;8.73;;
81960;SDS011;71462;50.650;6.888;2024-03-22T06:25:07;16.30;;;8.60;;
81960;SDS011;71462;50.650;6.888;2024-03-22T06:27:33;16.95;;;8.88;;
81960;SDS011;71462;50.650;6.888;2024-03-22T06:29:59;15.30;;;9.05;;
81960;SDS011;71462;50.650;6.888;2024-03-22T06:32:25;16.70;;;9.30;;
81960;SDS011;71462;50.650;6.888;2024-03-22T06:34:52;14.60;;;7.70;;
81960;SDS011;71462;50.650;6.888;2024-03-22T06:37:18;16.50;;;8.40;;
81960;SDS011;71462;50.650;6.888;2024-03-22T06:39:44;17.95;;;8.18;;
81960;SDS011;71462;50.650;6.888;2024-03-22T06:42:12;15.00;;;7.47;;
81960;SDS011;71462;50.650;6.888;2024-03-22T06:44:38;15.82;;;7.78;;
81960;SDS011;71462;50.650;6.888;2024-03-22T06:47:04;10.98;;;6.20;;
81960;SDS011;71462;50.650;6.888;2024-03-22T06:49:31;13.40;;;7.50;;
81960;SDS011;71462;50.650;6.888;2024-03-22T06:51:57;16.35;;;7.20;;
81960;SDS011;71462;50.650;6.888;2024-03-22T06:54:24;16.08;;;8.70;;
81960;SDS011;71462;50.650;6.888;2024-03-22T06:56:51;16.48;;;8.20;;
81960;SDS011;71462;50.650;6.888;2024-03-22T06:59:19;19.30;;;9.85;;
81960;SDS011;71462;50.650;6.888;2024-03-22T07:01:45;15.48;;;7.97;;
81960;SDS011;71462;50.650;6.888;2024-03-22T07:04:12;14.95;;;9.27;;
81960;SDS011;71462;50.650;6.888;2024-03-22T07:06:38;15.18;;;8.50;;
81960;SDS011;71462;50.650;6.888;2024-03-22T07:09:05;17.40;;;9.93;;
81960;SDS011;71462;50.650;6.888;2024-03-22T07:11:32;19.58;;;10.77;;
81960;SDS011;71462;50.650;6.888;2024-03-22T07:13:59;20.23;;;9.35;;
81960;SDS011;71462;50.650;6.888;2024-03-22T07:16:26;19.88;;;9.85;;
81960;SDS011;71462;50.650;6.888;2024-03-22T07:18:53;22.77;;;9.13;;
81960;SDS011;71462;50.650;6.888;2024-03-22T07:21:19;20.17;;;10.27;;
81960;SDS011;71462;50.650;6.888;2024-03-22T07:23:45;20.13;;;10.52;;
81960;SDS011;71462;50.650;6.888;2024-03-22T07:26:11;18.27;;;10.52;;
81960;SDS011;71462;50.650;6.888;2024-03-22T07:28:38;19.17;;;10.85;;
81960;SDS011;71462;50.650;6.888;2024-03-22T07:31:04;24.85;;;11.05;;
81960;SDS011;71462;50.650;6.888;2024-03-22T07:33:33;18.27;;;10.13;;
81960;SDS011;71462;50.650;6.888;2024-03-22T07:36:01;20.70;;;11.40;;
81960;SDS011;71462;50.650;6.888;2024-03-22T07:38:28;22.95;;;11.63;;
81960;SDS011;71462;50.650;6.888;2024-03-22T07:40:54;20.35;;;10.98;;
81960;SDS011;71462;50.650;6.888;2024-03-22T07:43:20;20.02;;;11.88;;
81960;SDS011;71462;50.650;6.888;2024-03-22T07:45:47;19.88;;;12.05;;
81960;SDS011;71462;50.650;6.888;2024-03-22T07:48:14;20.98;;;10.63;;
81960;SDS011;71462;50.650;6.888;2024-03-22T07:50:41;21.52;;;12.05;;
81960;SDS011;71462;50.650;6.888;2024-03-22T07:53:10;18.60;;;10.82;;
81960;SDS011;71462;50.650;6.888;2024-03-22T07:55:36;19.33;;;11.32;;
81960;SDS011;71462;50.650;6.888;2024-03-22T07:58:03;21.83;;;11.77;;
81960;SDS011;71462;50.650;6.888;2024-03-22T08:00:29;18.13;;;9.40;;
81960;SDS011;71462;50.650;6.888;2024-03-22T08:02:58;18.38;;;10.80;;
81960;SDS011;71462;50.650;6.888;2024-03-22T08:05:24;23.02;;;11.50;;
81960;SDS011;71462;50.650;6.888;2024-03-22T08:07:53;23.10;;;11.05;;
81960;SDS011;71462;50.650;6.888;2024-03-22T08:10:18;23.63;;;11.48;;
81960;SDS011;71462;50.650;6.888;2024-03-22T08:12:45;29.30;;;12.93;;
81960;SDS011;71462;50.650;6.888;2024-03-22T08:15:11;24.70;;;12.32;;
81960;SDS011;71462;50.650;6.888;2024-03-22T08:17:38;21.55;;;11.00;;
81960;SDS011;71462;50.650;6.888;2024-03-22T08:20:04;18.75;;;11.00;;
81960;SDS011;71462;50.650;6.888;2024-03-22T08:22:32;21.08;;;11.57;;
81960;SDS011;71462;50.650;6.888;2024-03-22T08:24:59;21.65;;;12.88;;
81960;SDS011;71462;50.650;6.888;2024-03-22T08:27:27;34.00;;;16.17;;
81960;SDS011;71462;50.650;6.888;2024-03-22T08:29:53;25.33;;;14.68;;
81960;SDS011;71462;50.650;6.888;2024-03-22T08:32:20;25.00;;;13.88;;
81960;SDS011;71462;50.650;6.888;2024-03-22T08:34:46;20.48;;;12.88;;
81960;SDS011;71462;50.650;6.888;2024-03-22T08:37:12;30.75;;;14.15;;
81960;SDS011;71462;50.650;6.888;2024-03-22T08:39:38;29.23;;;14.15;;
81960;SDS011;71462;50.650;6.888;2024-03-22T08:42:07;21.83;;;13.27;;
81960;SDS011;71462;50.650;6.888;2024-03-22T08:44:34;24.52;;;13.63;;
81960;SDS011;71462;50.650;6.888;2024-03-22T08:47:01;24.95;;;13.15;;
81960;SDS011;71462;50.650;6.888;2024-03-22T08:49:27;25.38;;;13.02;;
81960;SDS011;71462;50.650;6.888;2024-03-22T08:51:55;30.02;;;15.68;;
81960;SDS011;71462;50.650;6.888;2024-03-22T08:54:21;24.98;;;12.68;;
81960;SDS011;71462;50.650;6.888;2024-03-22T08:56:48;22.85;;;14.13;;
81960;SDS011;71462;50.650;6.888;2024-03-22T08:59:15;23.70;;;14.02;;
81960;SDS011;71462;50.650;6.888;2024-03-22T09:01:42;21.92;;;12.98;;
81960;SDS011;71462;50.650;6.888;2024-03-22T09:04:08;25.90;;;13.57;;
81960;SDS011;71462;50.650;6.888;2024-03-22T09:06:35;28.02;;;15.77;;
81960;SDS011;71462;50.650;6.888;2024-03-22T09:09:00;25.40;;;14.82;;
81960;SDS011;71462;50.650;6.888;2024-03-22T09:11:28;29.65;;;15.55;;
81960;SDS011;71462;50.650;6.888;2024-03-22T09:13:54;26.38;;;13.95;;
81960;SDS011;71462;50.650;6.888;2024-03-22T09:16:22;25.27;;;14.45;;
81960;SDS011;71462;50.650;6.888;2024-03-22T09:18:49;25.48;;;14.93;;
81960;SDS011;71462;50.650;6.888;2024-03-22T09:21:16;25.85;;;14.63;;
81960;SDS011;71462;50.650;6.888;2024-03-22T09:23:42;26.88;;;14.57;;
81960;SDS011;71462;50.650;6.888;2024-03-22T09:26:09;28.05;;;14.45;;
81960;SDS011;71462;50.650;6.888;2024-03-22T09:28:34;28.30;;;15.40;;
81960;SDS011;71462;50.650;6.888;2024-03-22T09:31:08;31.63;;;15.63;;
81960;SDS011;71462;50.650;6.888;2024-03-22T09:33:35;27.67;;;16.20;;
81960;SDS011;71462;50.650;6.888;2024-03-22T09:36:03;25.17;;;14.30;;
81960;SDS011;71462;50.650;6.888;2024-03-22T09:38:30;31.77;;;15.80;;
81960;SDS011;71462;50.650;6.888;2024-03-22T09:40:57;30.98;;;15.30;;
81960;SDS011;71462;50.650;6.888;2024-03-22T09:43:23;24.17;;;14.43;;
81960;SDS011;71462;50.650;6.888;2024-03-22T09:45:54;32.33;;;15.35;;
81960;SDS011;71462;50.650;6.888;2024-03-22T09:48:21;26.17;;;14.23;;
81960;SDS011;71462;50.650;6.888;2024-03-22T09:50:52;23.33;;;13.70;;
81960;SDS011;71462;50.650;6.888;2024-03-22T09:53:19;25.75;;;14.57;;
81960;SDS011;71462;50.650;6.888;2024-03-22T09:55:47;24.38;;;14.90;;
81960;SDS011;71462;50.650;6.888;2024-03-22T09:58:14;25.30;;;15.02;;
81960;SDS011;71462;50.650;6.888;2024-03-22T10:00:42;24.77;;;13.40;;
81960;SDS011;71462;50.650;6.888;2024-03-22T10:03:11;21.75;;;13.45;;
81960;SDS011;71462;50.650;6.888;2024-03-22T10:05:38;20.75;;;13.77;;
81960;SDS011;71462;50.650;6.888;2024-03-22T10:08:06;24.17;;;14.13;;
81960;SDS011;71462;50.650;6.888;2024-03-22T10:10:33;22.88;;;12.75;;
81960;SDS011;71462;50.650;6.888;2024-03-22T10:13:00;24.10;;;12.95;;
81960;SDS011;71462;50.650;6.888;2024-03-22T10:15:27;18.85;;;11.18;;
81960;SDS011;71462;50.650;6.888;2024-03-22T10:17:57;22.40;;;13.07;;
81960;SDS011;71462;50.650;6.888;2024-03-22T10:20:25;23.05;;;12.15;;
81960;SDS011;71462;50.650;6.888;2024-03-22T10:22:56;22.58;;;12.88;;
81960;SDS011;71462;50.650;6.888;2024-03-22T10:25:26;20.85;;;12.80;;
81960;SDS011;71462;50.650;6.888;2024-03-22T10:27:53;22.27;;;13.30;;
81960;SDS011;71462;50.650;6.888;2024-03-22T10:30:21;22.48;;;10.70;;
81960;SDS011;71462;50.650;6.888;2024-03-22T10:32:48;16.90;;;10.27;;
81960;SDS011;71462;50.650;6.888;2024-03-22T10:35:15;20.25;;;11.43;;
81960;SDS011;71462;50.650;6.888;2024-03-22T10:37:44;20.02;;;9.32;;
81960;SDS011;71462;50.650;6.888;2024-03-22T10:40:11;13.23;;;7.90;;
81960;SDS011;71462;50.650;6.888;2024-03-22T10:42:43;12.30;;;7.53;;
81960;SDS011;71462;50.650;6.888;2024-03-22T10:45:13;13.43;;;7.63;;
81960;SDS011;71462;50.650;6.888;2024-03-22T10:47:39;16.67;;;8.73;;
81960;SDS011;71462;50.650;6.888;2024-03-22T10:50:07;15.75;;;7.93;;
81960;SDS011;71462;50.650;6.888;2024-03-22T10:52:38;14.60;;;7.25;;
81960;SDS011;71462;50.650;6.888;2024-03-22T10:55:07;17.42;;;8.10;;
81960;SDS011;71462;50.650;6.888;2024-03-22T10:57:42;15.80;;;8.13;;
81960;SDS011;71462;50.650;6.888;2024-03-22T11:00:10;16.23;;;8.35;;
81960;SDS011;71462;50.650;6.888;2024-03-22T11:02:39;18.02;;;8.82;;
81960;SDS011;71462;50.650;6.888;2024-03-22T11:05:15;16.67;;;9.13;;
81960;SDS011;71462;50.650;6.888;2024-03-22T11:07:43;17.27;;;8.82;;
81960;SDS011;71462;50.650;6.888;2024-03-22T11:10:11;15.70;;;8.43;;
81960;SDS011;71462;50.650;6.888;2024-03-22T11:12:38;14.80;;;8.70;;
81960;SDS011;71462;50.650;6.888;2024-03-22T11:15:08;16.80;;;9.32;;
81960;SDS011;71462;50.650;6.888;2024-03-22T11:17:37;17.85;;;9.55;;
81960;SDS011;71462;50.650;6.888;2024-03-22T11:20:07;14.50;;;8.80;;
81960;SDS011;71462;50.650;6.888;2024-03-22T11:22:37;16.40;;;8.50;;
81960;SDS011;71462;50.650;6.888;2024-03-22T11:25:06;22.35;;;10.88;;
81960;SDS011;71462;50.650;6.888;2024-03-22T11:27:32;14.52;;;8.32;;
81960;SDS011;71462;50.650;6.888;2024-03-22T11:30:00;25.67;;;16.00;;
81960;SDS011;71462;50.650;6.888;2024-03-22T11:32:27;21.65;;;11.90;;
81960;SDS011;71462;50.650;6.888;2024-03-22T11:34:54;12.55;;;7.05;;
81960;SDS011;71462;50.650;6.888;2024-03-22T11:37:23;12.25;;;7.50;;
81960;SDS011;71462;50.650;6.888;2024-03-22T11:39:52;18.63;;;10.40;;
81960;SDS011;71462;50.650;6.888;2024-03-22T11:42:18;12.68;;;6.40;;
81960;SDS011;71462;50.650;6.888;2024-03-22T11:44:45;10.90;;;5.63;;
81960;SDS011;71462;50.650;6.888;2024-03-22T11:47:12;8.27;;;4.18;;
81960;SDS011;71462;50.650;6.888;2024-03-22T11:49:40;19.38;;;7.10;;
81960;SDS011;71462;50.650;6.888;2024-03-22T11:52:07;18.48;;;10.57;;
81960;SDS011;71462;50.650;6.888;2024-03-22T11:54:34;13.07;;;6.22;;
81960;SDS011;71462;50.650;6.888;2024-03-22T11:57:00;12.32;;;4.55;;
81960;SDS011;71462;50.650;6.888;2024-03-22T11:59:29;16.88;;;7.78;;
81960;SDS011;71462;50.650;6.888;2024-03-22T12:01:55;8.88;;;4.05;;
81960;SDS011;71462;50.650;6.888;2024-03-22T12:04:22;6.57;;;3.72;;
81960;SDS011;71462;50.650;6.888;2024-03-22T12:06:49;9.93;;;5.60;;
81960;SDS011;71462;50.650;6.888;2024-03-22T12:09:18;9.50;;;4.60;;
81960;SDS011;71462;50.650;6.888;2024-03-22T12:11:44;10.80;;;4.28;;
81960;SDS011;71462;50.650;6.888;2024-03-22T12:14:11;8.02;;;3.60;;
81960;SDS011;71462;50.650;6.888;2024-03-22T12:16:36;8.63;;;4.13;;
81960;SDS011;71462;50.650;6.888;2024-03-22T12:19:03;9.90;;;4.30;;
81960;SDS011;71462;50.650;6.888;2024-03-22T12:21:29;7.05;;;3.47;;
81960;SDS011;71462;50.650;6.888;2024-03-22T12:23:58;10.82;;;5.60;;
81960;SDS011;71462;50.650;6.888;2024-03-22T12:26:24;11.80;;;6.20;;
81960;SDS011;71462;50.650;6.888;2024-03-22T12:28:51;11.13;;;4.20;;
81960;SDS011;71462;50.650;6.888;2024-03-22T12:31:17;6.93;;;3.63;;
81960;SDS011;71462;50.650;6.888;2024-03-22T12:33:44;6.53;;;4.03;;
81960;SDS011;71462;50.650;6.888;2024-03-22T12:36:10;10.35;;;4.63;;
81960;SDS011;71462;50.650;6.888;2024-03-22T12:38:37;7.22;;;3.95;;
81960;SDS011;71462;50.650;6.888;2024-03-22T12:41:04;7.85;;;3.92;;
81960;SDS011;71462;50.650;6.888;2024-03-22T12:43:32;9.82;;;4.95;;
81960;SDS011;71462;50.650;6.888;2024-03-22T12:45:58;9.85;;;4.03;;
81960;SDS011;71462;50.650;6.888;2024-03-22T12:48:24;14.07;;;6.22;;
81960;SDS011;71462;50.650;6.888;2024-03-22T12:50:50;7.28;;;3.95;;
81960;SDS011;71462;50.650;6.888;2024-03-22T12:53:17;11.73;;;5.00;;
81960;SDS011;71462;50.650;6.888;2024-03-22T12:55:43;10.57;;;5.28;;
81960;SDS011;71462;50.650;6.888;2024-03-22T12:58:11;9.90;;;3.80;;
81960;SDS011;71462;50.650;6.888;2024-03-22T13:00:37;8.93;;;3.83;;
81960;SDS011;71462;50.650;6.888;2024-03-22T13:03:04;11.23;;;4.97;;
81960;SDS011;71462;50.650;6.888;2024-03-22T13:05:30;6.65;;;3.65;;
81960;SDS011;71462;50.650;6.888;2024-03-22T13:07:57;13.05;;;3.95;;
81960;SDS011;71462;50.650;6.888;2024-03-22T13:10:23;7.45;;;3.47;;
81960;SDS011;71462;50.650;6.888;2024-03-22T13:12:50;6.13;;;3.63;;
81960;SDS011;71462;50.650;6.888;2024-03-22T13:15:17;7.00;;;3.60;;
81960;SDS011;71462;50.650;6.888;2024-03-22T13:17:44;10.05;;;2.95;;
81960;SDS011;71462;50.650;6.888;2024-03-22T13:20:10;10.10;;;3.65;;
81960;SDS011;71462;50.650;6.888;2024-03-22T13:22:40;6.15;;;3.10;;
81960;SDS011;71462;50.650;6.888;2024-03-22T13:25:06;6.85;;;3.00;;
81960;SDS011;71462;50.650;6.888;2024-03-22T13:27:35;6.40;;;3.17;;
81960;SDS011;71462;50.650;6.888;2024-03-22T13:30:04;4.93;;;2.88;;
81960;SDS011;71462;50.650;6.888;2024-03-22T13:32:36;6.07;;;2.80;;
81960;SDS011;71462;50.650;6.888;2024-03-22T13:35:03;7.80;;;2.85;;
81960;SDS011;71462;50.650;6.888;2024-03-22T13:37:30;7.22;;;3.17;;
81960;SDS011;71462;50.650;6.888;2024-03-22T13:39:56;5.85;;;3.22;;
81960;SDS011;71462;50.650;6.888;2024-03-22T13:42:23;5.63;;;3.10;;
81960;SDS011;71462;50.650;6.888;2024-03-22T13:44:49;4.75;;;2.70;;
81960;SDS011;71462;50.650;6.888;2024-03-22T13:47:16;7.43;;;2.60;;
81960;SDS011;71462;50.650;6.888;2024-03-22T13:49:45;7.90;;;2.60;;
81960;SDS011;71462;50.650;6.888;2024-03-22T13:52:12;5.43;;;3.10;;
81960;SDS011;71462;50.650;6.888;2024-03-22T13:54:38;6.30;;;3.08;;
81960;SDS011;71462;50.650;6.888;2024-03-22T13:57:05;5.90;;;2.80;;
81960;SDS011;71462;50.650;6.888;2024-03-22T13:59:31;9.40;;;3.38;;
81960;SDS011;71462;50.650;6.888;2024-03-22T14:01:58;6.07;;;2.60;;
81960;SDS011;71462;50.650;6.888;2024-03-22T14:04:24;5.95;;;2.63;;
81960;SDS011;71462;50.650;6.888;2024-03-22T14:06:53;6.93;;;2.95;;
81960;SDS011;71462;50.650;6.888;2024-03-22T14:09:19;7.30;;;2.95;;
81960;SDS011;71462;50.650;6.888;2024-03-22T14:11:46;6.10;;;2.92;;
81960;SDS011;71462;50.650;6.888;2024-03-22T14:14:14;18.50;;;3.50;;
81960;SDS011;71462;50.650;6.888;2024-03-22T14:16:41;7.40;;;3.20;;
81960;SDS011;71462;50.650;6.888;2024-03-22T14:19:07;5.07;;;2.80;;
81960;SDS011;71462;50.650;6.888;2024-03-22T14:21:35;6.57;;;3.03;;
81960;SDS011;71462;50.650;6.888;2024-03-22T14:24:02;7.97;;;3.10;;
81960;SDS011;71462;50.650;6.888;2024-03-22T14:26:30;6.45;;;3.00;;
81960;SDS011;71462;50.650;6.888;2024-03-22T14:28:57;8.27;;;3.50;;
81960;SDS011;71462;50.650;6.888;2024-03-22T14:31:24;6.60;;;3.10;;